Chetwynd Airport
CYCQ : now visible

Airfield :











YOU CAN JOIN US ON...

 
LOGIN :

Register | Disclaimer

   EN    FR    IT 

 









Legend :    VFR   Marginal VFR   IFR   Intensive IFR   Very Intensive IFR
Visi :
Ceiling :
>= 8 km
>= 3000ft
5 to 8 km
1000 to 3000 ft
1500m to 5 km
500 to 1000 ft
800 to 1500m
200 to 500 ft
< 800m
< 200 ft
Symbols :   Thunderstorms  Fog  Heavy snow  Heavy precipitations  Wind > 20 kt






- Airport Elevation : 2000 ft
- IATA code : YCQ


CYCQ - Chetwynd

CURRENT METAR :
  • 070000Z 23012G23KT 35SM FEW065 SCT082 SCT160 06/M08 A2941 RMK SC2AC1AS1 DIST PCPN N-E+W SLP993

EXPIRED METARs :
  • 062300Z 24022G29KT 190V260 35SM FEW065 SCT160 06/M09 A2943 RMK SC2AS2 DIST PCPN VLY W SLP998
  • 062200Z 22016G26KT 190V260 35SM FEW055 SCT160 SCT200 05/M10 A2944 RMK SC1AS2CI1 CI TR SLP004

TAF N/A



MET'MAP, your aeronautical weather chart ! - Copyright ORBIFLY December 2007 - Disclaimer

ORBIFLY MET'MAP TEAM :

Programming & Development : Alexandra Zaïnal
Concept & original design : Baudouin d'Aumeries
Assistance for programming : Marc-Olivier Méhu
Technical & hardware support : Manuel Goepfert

Contact : metmap@orbifly.com




SOURCES & CREDITS :

   NOAA       Earth
Advisory